sensor_id;sensor_type;location;lat;lon;timestamp;pressure;altitude;pressure_sealevel;temperature;humidity
75036;BME280;64247;51.540;5.854;2023-04-25T00:01:14;100747.34;;;5.85;100.00
75036;BME280;64247;51.540;5.854;2023-04-25T00:03:14;100748.16;;;5.86;100.00
75036;BME280;64247;51.540;5.854;2023-04-25T00:05:16;100752.41;;;5.87;100.00
75036;BME280;64247;51.540;5.854;2023-04-25T00:07:17;100752.91;;;5.89;100.00
75036;BME280;64247;51.540;5.854;2023-04-25T00:09:18;100753.41;;;5.91;100.00
75036;BME280;64247;51.540;5.854;2023-04-25T00:11:19;100762.59;;;5.90;100.00
75036;BME280;64247;51.540;5.854;2023-04-25T00:13:20;100756.09;;;5.91;100.00
75036;BME280;64247;51.540;5.854;2023-04-25T00:15:22;100763.06;;;5.92;100.00
75036;BME280;64247;51.540;5.854;2023-04-25T00:17:23;100761.16;;;5.93;100.00
75036;BME280;64247;51.540;5.854;2023-04-25T00:19:27;100762.75;;;5.94;100.00
75036;BME280;64247;51.540;5.854;2023-04-25T00:21:29;100768.13;;;5.94;100.00
75036;BME280;64247;51.540;5.854;2023-04-25T00:23:32;100766.53;;;5.93;100.00
75036;BME280;64247;51.540;5.854;2023-04-25T00:25:32;100773.84;;;5.92;100.00
75036;BME280;64247;51.540;5.854;2023-04-25T00:27:33;100766.72;;;5.96;100.00
75036;BME280;64247;51.540;5.854;2023-04-25T00:29:34;100768.31;;;5.97;100.00
75036;BME280;64247;51.540;5.854;2023-04-25T00:31:35;100772.91;;;5.97;100.00
75036;BME280;64247;51.540;5.854;2023-04-25T00:33:36;100770.72;;;5.99;100.00
75036;BME280;64247;51.540;5.854;2023-04-25T00:35:37;100773.69;;;5.97;100.00
75036;BME280;64247;51.540;5.854;2023-04-25T00:37:39;100767.34;;;5.93;100.00
75036;BME280;64247;51.540;5.854;2023-04-25T00:39:40;100775.28;;;5.90;100.00
75036;BME280;64247;51.540;5.854;2023-04-25T00:41:41;100766.53;;;5.84;100.00
75036;BME280;64247;51.540;5.854;2023-04-25T00:43:42;100774.25;;;5.77;100.00
75036;BME280;64247;51.540;5.854;2023-04-25T00:45:46;100773.91;;;5.69;100.00
75036;BME280;64247;51.540;5.854;2023-04-25T00:47:48;100769.25;;;5.61;100.00
75036;BME280;64247;51.540;5.854;2023-04-25T00:49:50;100772.88;;;5.57;100.00
75036;BME280;64247;51.540;5.854;2023-04-25T00:51:50;100765.13;;;5.55;100.00
75036;BME280;64247;51.540;5.854;2023-04-25T00:53:52;100773.47;;;5.53;100.00
75036;BME280;64247;51.540;5.854;2023-04-25T00:55:55;100769.69;;;5.54;100.00
75036;BME280;64247;51.540;5.854;2023-04-25T00:57:56;100771.59;;;5.54;100.00
75036;BME280;64247;51.540;5.854;2023-04-25T00:59:58;100770.31;;;5.51;100.00
75036;BME280;64247;51.540;5.854;2023-04-25T01:02:00;100764.94;;;5.51;100.00
75036;BME280;64247;51.540;5.854;2023-04-25T01:04:01;100769.84;;;5.49;100.00
75036;BME280;64247;51.540;5.854;2023-04-25T01:06:03;100768.25;;;5.48;100.00
75036;BME280;64247;51.540;5.854;2023-04-25T01:08:04;100767.75;;;5.46;100.00
75036;BME280;64247;51.540;5.854;2023-04-25T01:10:06;100772.34;;;5.46;100.00
75036;BME280;64247;51.540;5.854;2023-04-25T01:12:07;100774.53;;;5.44;100.00
75036;BME280;64247;51.540;5.854;2023-04-25T01:14:09;100766.47;;;5.44;100.00
75036;BME280;64247;51.540;5.854;2023-04-25T01:16:10;100770.88;;;5.39;100.00
75036;BME280;64247;51.540;5.854;2023-04-25T01:18:11;100780.06;;;5.38;100.00
75036;BME280;64247;51.540;5.854;2023-04-25T01:20:13;100772.28;;;5.37;100.00
75036;BME280;64247;51.540;5.854;2023-04-25T01:22:15;100785.25;;;5.35;100.00
75036;BME280;64247;51.540;5.854;2023-04-25T01:24:17;100774.97;;;5.37;100.00
75036;BME280;64247;51.540;5.854;2023-04-25T01:26:18;100782.25;;;5.36;100.00
75036;BME280;64247;51.540;5.854;2023-04-25T01:28:21;100777.19;;;5.35;100.00
75036;BME280;64247;51.540;5.854;2023-04-25T01:30:22;100781.91;;;5.29;100.00
75036;BME280;64247;51.540;5.854;2023-04-25T01:32:25;100777.44;;;5.25;100.00
75036;BME280;64247;51.540;5.854;2023-04-25T01:34:29;100783.22;;;5.18;100.00
75036;BME280;64247;51.540;5.854;2023-04-25T01:36:32;100775.47;;;5.16;100.00
75036;BME280;64247;51.540;5.854;2023-04-25T01:38:34;100780.84;;;5.16;100.00
75036;BME280;64247;51.540;5.854;2023-04-25T01:40:38;100786.84;;;5.13;100.00
75036;BME280;64247;51.540;5.854;2023-04-25T01:42:43;100780.47;;;5.09;100.00
75036;BME280;64247;51.540;5.854;2023-04-25T01:44:44;100781.88;;;5.06;100.00
75036;BME280;64247;51.540;5.854;2023-04-25T01:46:45;100781.38;;;5.04;100.00
75036;BME280;64247;51.540;5.854;2023-04-25T01:48:46;100786.28;;;5.02;100.00
75036;BME280;64247;51.540;5.854;2023-04-25T01:50:47;100786.09;;;4.99;100.00
75036;BME280;64247;51.540;5.854;2023-04-25T01:52:49;100788.13;;;4.93;100.00
75036;BME280;64247;51.540;5.854;2023-04-25T01:54:51;100792.00;;;4.87;100.00
75036;BME280;64247;51.540;5.854;2023-04-25T01:56:53;100791.03;;;4.83;100.00
75036;BME280;64247;51.540;5.854;2023-04-25T01:58:55;100797.19;;;4.83;100.00
75036;BME280;64247;51.540;5.854;2023-04-25T02:01:23;100802.50;;;4.74;100.00
75036;BME280;64247;51.540;5.854;2023-04-25T02:03:43;100800.72;;;4.70;100.00
75036;BME280;64247;51.540;5.854;2023-04-25T02:06:02;100807.31;;;4.64;100.00
75036;BME280;64247;51.540;5.854;2023-04-25T02:08:06;100811.88;;;4.63;100.00
75036;BME280;64247;51.540;5.854;2023-04-25T02:10:09;100813.97;;;4.66;100.00
75036;BME280;64247;51.540;5.854;2023-04-25T02:12:17;100809.69;;;4.65;100.00
75036;BME280;64247;51.540;5.854;2023-04-25T02:14:44;100810.78;;;4.64;100.00
75036;BME280;64247;51.540;5.854;2023-04-25T02:17:05;100814.97;;;4.56;100.00
75036;BME280;64247;51.540;5.854;2023-04-25T02:19:06;100810.19;;;4.53;100.00
75036;BME280;64247;51.540;5.854;2023-04-25T02:21:07;100818.16;;;4.58;100.00
75036;BME280;64247;51.540;5.854;2023-04-25T02:23:08;100810.09;;;4.58;100.00
75036;BME280;64247;51.540;5.854;2023-04-25T02:25:10;100812.47;;;4.60;100.00
75036;BME280;64247;51.540;5.854;2023-04-25T02:27:12;100810.50;;;4.66;100.00
75036;BME280;64247;51.540;5.854;2023-04-25T02:29:13;100819.84;;;4.68;100.00
75036;BME280;64247;51.540;5.854;2023-04-25T02:31:16;100818.25;;;4.67;100.00
75036;BME280;64247;51.540;5.854;2023-04-25T02:33:17;100821.25;;;4.66;100.00
75036;BME280;64247;51.540;5.854;2023-04-25T02:35:18;100820.94;;;4.67;100.00
75036;BME280;64247;51.540;5.854;2023-04-25T02:37:20;100812.88;;;4.67;100.00
75036;BME280;64247;51.540;5.854;2023-04-25T02:39:21;100816.75;;;4.61;100.00
75036;BME280;64247;51.540;5.854;2023-04-25T02:41:23;100823.75;;;4.62;100.00
75036;BME280;64247;51.540;5.854;2023-04-25T02:43:25;100823.22;;;4.60;100.00
75036;BME280;64247;51.540;5.854;2023-04-25T02:45:26;100821.94;;;4.57;100.00
75036;BME280;64247;51.540;5.854;2023-04-25T02:47:27;100821.13;;;4.57;100.00
75036;BME280;64247;51.540;5.854;2023-04-25T02:49:28;100815.28;;;4.55;100.00
75036;BME280;64247;51.540;5.854;2023-04-25T02:51:29;100821.25;;;4.52;100.00
75036;BME280;64247;51.540;5.854;2023-04-25T02:53:30;100826.22;;;4.44;100.00
75036;BME280;64247;51.540;5.854;2023-04-25T02:55:31;100823.34;;;4.41;100.00
75036;BME280;64247;51.540;5.854;2023-04-25T02:57:35;100821.06;;;4.34;100.00
75036;BME280;64247;51.540;5.854;2023-04-25T02:59:35;100819.06;;;4.26;100.00
75036;BME280;64247;51.540;5.854;2023-04-25T03:01:36;100817.06;;;4.18;100.00
75036;BME280;64247;51.540;5.854;2023-04-25T03:03:37;100814.47;;;4.12;100.00
75036;BME280;64247;51.540;5.854;2023-04-25T03:05:38;100822.84;;;4.11;100.00
75036;BME280;64247;51.540;5.854;2023-04-25T03:07:39;100826.13;;;4.08;100.00
75036;BME280;64247;51.540;5.854;2023-04-25T03:09:40;100828.13;;;4.02;100.00
75036;BME280;64247;51.540;5.854;2023-04-25T03:11:42;100828.41;;;4.01;100.00
75036;BME280;64247;51.540;5.854;2023-04-25T03:13:44;100814.25;;;3.95;100.00
75036;BME280;64247;51.540;5.854;2023-04-25T03:15:45;100821.63;;;3.89;100.00
75036;BME280;64247;51.540;5.854;2023-04-25T03:17:46;100817.72;;;3.82;100.00
75036;BME280;64247;51.540;5.854;2023-04-25T03:19:47;100821.50;;;3.80;100.00
75036;BME280;64247;51.540;5.854;2023-04-25T03:21:48;100822.88;;;3.78;100.00
75036;BME280;64247;51.540;5.854;2023-04-25T03:23:49;100822.97;;;3.73;100.00
75036;BME280;64247;51.540;5.854;2023-04-25T03:25:50;100815.50;;;3.70;100.00
75036;BME280;64247;51.540;5.854;2023-04-25T03:27:51;100827.34;;;3.69;100.00
75036;BME280;64247;51.540;5.854;2023-04-25T03:29:52;100825.75;;;3.68;100.00
75036;BME280;64247;51.540;5.854;2023-04-25T03:31:53;100821.19;;;3.68;100.00
75036;BME280;64247;51.540;5.854;2023-04-25T03:33:54;100828.16;;;3.69;100.00
75036;BME280;64247;51.540;5.854;2023-04-25T03:35:56;100832.00;;;3.63;100.00
75036;BME280;64247;51.540;5.854;2023-04-25T03:37:58;100831.19;;;3.62;100.00
75036;BME280;64247;51.540;5.854;2023-04-25T03:40:03;100830.41;;;3.62;100.00
75036;BME280;64247;51.540;5.854;2023-04-25T03:42:25;100827.00;;;3.56;100.00
75036;BME280;64247;51.540;5.854;2023-04-25T03:44:26;100832.75;;;3.49;100.00
75036;BME280;64247;51.540;5.854;2023-04-25T03:46:26;100833.34;;;3.46;100.00
75036;BME280;64247;51.540;5.854;2023-04-25T03:48:27;100844.06;;;3.46;100.00
75036;BME280;64247;51.540;5.854;2023-04-25T03:50:28;100836.59;;;3.43;100.00
75036;BME280;64247;51.540;5.854;2023-04-25T03:52:29;100841.97;;;3.43;100.00
75036;BME280;64247;51.540;5.854;2023-04-25T03:54:30;100834.44;;;3.45;100.00
75036;BME280;64247;51.540;5.854;2023-04-25T03:56:39;100842.38;;;3.51;100.00
75036;BME280;64247;51.540;5.854;2023-04-25T03:58:50;100842.59;;;3.54;100.00
75036;BME280;64247;51.540;5.854;2023-04-25T04:00:53;100848.38;;;3.61;100.00
75036;BME280;64247;51.540;5.854;2023-04-25T04:02:54;100847.25;;;3.68;100.00
75036;BME280;64247;51.540;5.854;2023-04-25T04:04:55;100842.34;;;3.70;100.00
75036;BME280;64247;51.540;5.854;2023-04-25T04:06:57;100846.28;;;3.77;100.00
75036;BME280;64247;51.540;5.854;2023-04-25T04:09:00;100842.19;;;3.80;100.00
75036;BME280;64247;51.540;5.854;2023-04-25T04:11:02;100844.56;;;3.82;100.00
75036;BME280;64247;51.540;5.854;2023-04-25T04:13:03;100845.38;;;3.82;100.00
75036;BME280;64247;51.540;5.854;2023-04-25T04:15:04;100839.50;;;3.80;100.00
75036;BME280;64247;51.540;5.854;2023-04-25T04:17:06;100843.59;;;3.77;100.00
75036;BME280;64247;51.540;5.854;2023-04-25T04:19:08;100845.25;;;3.73;100.00
75036;BME280;64247;51.540;5.854;2023-04-25T04:21:10;100849.00;;;3.72;100.00
75036;BME280;64247;51.540;5.854;2023-04-25T04:23:14;100845.53;;;3.72;100.00
75036;BME280;64247;51.540;5.854;2023-04-25T04:25:15;100852.81;;;3.71;100.00
75036;BME280;64247;51.540;5.854;2023-04-25T04:27:34;100850.13;;;3.71;100.00
75036;BME280;64247;51.540;5.854;2023-04-25T04:29:55;100848.03;;;3.68;100.00
75036;BME280;64247;51.540;5.854;2023-04-25T04:32:13;100855.78;;;3.70;100.00
75036;BME280;64247;51.540;5.854;2023-04-25T04:34:15;100862.44;;;3.72;100.00
75036;BME280;64247;51.540;5.854;2023-04-25T04:36:17;100859.75;;;3.72;100.00
75036;BME280;64247;51.540;5.854;2023-04-25T04:38:20;100854.91;;;3.74;100.00
75036;BME280;64247;51.540;5.854;2023-04-25T04:40:21;100861.34;;;3.73;100.00
75036;BME280;64247;51.540;5.854;2023-04-25T04:42:28;100862.66;;;3.76;100.00
75036;BME280;64247;51.540;5.854;2023-04-25T04:44:41;100867.44;;;3.79;100.00
75036;BME280;64247;51.540;5.854;2023-04-25T04:47:03;100870.03;;;3.84;100.00
75036;BME280;64247;51.540;5.854;2023-04-25T04:49:27;100872.66;;;3.89;100.00
75036;BME280;64247;51.540;5.854;2023-04-25T04:51:46;100871.47;;;3.95;100.00
75036;BME280;64247;51.540;5.854;2023-04-25T04:54:06;100883.50;;;3.98;100.00
75036;BME280;64247;51.540;5.854;2023-04-25T04:56:25;100882.94;;;4.01;100.00
75036;BME280;64247;51.540;5.854;2023-04-25T04:58:39;100881.13;;;4.10;100.00
75036;BME280;64247;51.540;5.854;2023-04-25T05:01:01;100889.13;;;4.16;100.00
75036;BME280;64247;51.540;5.854;2023-04-25T05:03:23;100902.97;;;4.23;100.00
75036;BME280;64247;51.540;5.854;2023-04-25T05:05:43;100899.09;;;4.29;100.00
75036;BME280;64247;51.540;5.854;2023-04-25T05:08:07;100905.66;;;4.37;100.00
75036;BME280;64247;51.540;5.854;2023-04-25T05:10:27;100907.38;;;4.47;100.00
75036;BME280;64247;51.540;5.854;2023-04-25T05:12:51;100915.75;;;4.59;100.00
75036;BME280;64247;51.540;5.854;2023-04-25T05:15:10;100912.06;;;4.69;100.00
75036;BME280;64247;51.540;5.854;2023-04-25T05:17:27;100919.94;;;4.79;100.00
75036;BME280;64247;51.540;5.854;2023-04-25T05:19:36;100922.22;;;4.86;100.00
75036;BME280;64247;51.540;5.854;2023-04-25T05:21:55;100922.81;;;4.97;100.00
75036;BME280;64247;51.540;5.854;2023-04-25T05:24:31;100929.88;;;5.06;100.00
75036;BME280;64247;51.540;5.854;2023-04-25T05:26:57;100930.56;;;5.12;100.00
75036;BME280;64247;51.540;5.854;2023-04-25T05:29:17;100931.25;;;5.18;100.00
75036;BME280;64247;51.540;5.854;2023-04-25T05:31:38;100940.50;;;5.26;100.00
75036;BME280;64247;51.540;5.854;2023-04-25T05:33:44;100939.59;;;5.30;100.00
75036;BME280;64247;51.540;5.854;2023-04-25T05:35:45;100945.50;;;5.32;100.00
75036;BME280;64247;51.540;5.854;2023-04-25T05:37:46;100946.66;;;5.40;100.00
75036;BME280;64247;51.540;5.854;2023-04-25T05:39:48;100939.16;;;5.51;100.00
75036;BME280;64247;51.540;5.854;2023-04-25T05:42:00;100944.19;;;5.66;100.00
75036;BME280;64247;51.540;5.854;2023-04-25T05:44:20;100941.06;;;5.73;100.00
75036;BME280;64247;51.540;5.854;2023-04-25T05:46:33;100944.75;;;5.77;100.00
75036;BME280;64247;51.540;5.854;2023-04-25T05:49:00;100948.44;;;5.81;100.00
75036;BME280;64247;51.540;5.854;2023-04-25T05:51:30;100954.47;;;5.87;100.00
75036;BME280;64247;51.540;5.854;2023-04-25T05:53:54;100951.03;;;5.95;100.00
75036;BME280;64247;51.540;5.854;2023-04-25T05:55:56;100960.84;;;6.05;100.00
75036;BME280;64247;51.540;5.854;2023-04-25T05:57:59;100956.59;;;6.13;100.00
75036;BME280;64247;51.540;5.854;2023-04-25T06:00:01;100957.56;;;6.17;100.00
75036;BME280;64247;51.540;5.854;2023-04-25T06:02:22;100950.13;;;6.23;100.00
75036;BME280;64247;51.540;5.854;2023-04-25T06:04:25;100958.72;;;6.25;100.00
75036;BME280;64247;51.540;5.854;2023-04-25T06:06:26;100959.81;;;6.24;100.00
75036;BME280;64247;51.540;5.854;2023-04-25T06:08:28;100967.22;;;6.18;100.00
75036;BME280;64247;51.540;5.854;2023-04-25T06:10:28;100972.81;;;6.22;100.00
75036;BME280;64247;51.540;5.854;2023-04-25T06:12:29;100967.59;;;6.25;100.00
75036;BME280;64247;51.540;5.854;2023-04-25T06:14:31;100977.34;;;6.35;100.00
75036;BME280;64247;51.540;5.854;2023-04-25T06:16:32;100976.63;;;6.52;99.08
75036;BME280;64247;51.540;5.854;2023-04-25T06:18:33;100971.19;;;6.75;98.62
75036;BME280;64247;51.540;5.854;2023-04-25T06:20:34;100978.19;;;6.85;95.34
75036;BME280;64247;51.540;5.854;2023-04-25T06:22:35;100974.88;;;6.88;93.10
75036;BME280;64247;51.540;5.854;2023-04-25T06:24:36;100969.31;;;6.84;92.94
75036;BME280;64247;51.540;5.854;2023-04-25T06:26:38;100979.66;;;6.91;94.34
75036;BME280;64247;51.540;5.854;2023-04-25T06:28:40;100975.88;;;7.01;94.22
75036;BME280;64247;51.540;5.854;2023-04-25T06:30:41;100979.84;;;7.03;93.05
75036;BME280;64247;51.540;5.854;2023-04-25T06:32:46;100968.56;;;7.01;92.90
75036;BME280;64247;51.540;5.854;2023-04-25T06:34:46;100982.38;;;7.00;91.98
75036;BME280;64247;51.540;5.854;2023-04-25T06:36:47;100980.63;;;6.95;92.75
75036;BME280;64247;51.540;5.854;2023-04-25T06:38:50;100983.00;;;6.96;90.46
75036;BME280;64247;51.540;5.854;2023-04-25T06:40:52;100980.50;;;7.09;91.52
75036;BME280;64247;51.540;5.854;2023-04-25T06:42:53;100981.34;;;7.27;91.23
75036;BME280;64247;51.540;5.854;2023-04-25T06:45:07;100990.13;;;7.50;87.53
75036;BME280;64247;51.540;5.854;2023-04-25T06:47:09;100996.81;;;7.62;89.87
75036;BME280;64247;51.540;5.854;2023-04-25T06:49:11;100989.66;;;7.66;88.36
75036;BME280;64247;51.540;5.854;2023-04-25T06:51:12;100989.16;;;7.64;86.92
75036;BME280;64247;51.540;5.854;2023-04-25T06:53:14;100996.31;;;7.59;86.18
75036;BME280;64247;51.540;5.854;2023-04-25T06:55:18;100998.22;;;7.59;86.05
75036;BME280;64247;51.540;5.854;2023-04-25T06:57:37;100994.41;;;7.60;86.73
75036;BME280;64247;51.540;5.854;2023-04-25T07:00:16;101003.97;;;7.84;84.78
75036;BME280;64247;51.540;5.854;2023-04-25T07:02:18;101010.81;;;7.99;85.31
75036;BME280;64247;51.540;5.854;2023-04-25T07:04:19;101011.91;;;8.15;84.46
75036;BME280;64247;51.540;5.854;2023-04-25T07:06:24;101009.97;;;8.33;83.26
75036;BME280;64247;51.540;5.854;2023-04-25T07:08:28;101004.84;;;8.49;81.52
75036;BME280;64247;51.540;5.854;2023-04-25T07:10:31;101012.00;;;8.54;80.54
75036;BME280;64247;51.540;5.854;2023-04-25T07:12:32;101018.69;;;8.57;81.19
75036;BME280;64247;51.540;5.854;2023-04-25T07:14:33;101024.56;;;8.59;81.04
75036;BME280;64247;51.540;5.854;2023-04-25T07:16:35;101009.94;;;8.51;83.43
75036;BME280;64247;51.540;5.854;2023-04-25T07:18:36;101018.06;;;8.60;80.11
75036;BME280;64247;51.540;5.854;2023-04-25T07:20:37;101012.59;;;8.68;81.40
75036;BME280;64247;51.540;5.854;2023-04-25T07:22:38;101021.69;;;8.64;79.93
75036;BME280;64247;51.540;5.854;2023-04-25T07:24:39;101025.34;;;8.59;81.20
75036;BME280;64247;51.540;5.854;2023-04-25T07:26:41;101019.13;;;8.67;78.42
75036;BME280;64247;51.540;5.854;2023-04-25T07:29:05;101030.72;;;8.77;78.33
75036;BME280;64247;51.540;5.854;2023-04-25T07:31:06;101031.94;;;8.97;76.94
75036;BME280;64247;51.540;5.854;2023-04-25T07:33:07;101034.44;;;9.11;76.30
75036;BME280;64247;51.540;5.854;2023-04-25T07:35:08;101036.59;;;9.17;77.38
75036;BME280;64247;51.540;5.854;2023-04-25T07:37:09;101035.53;;;9.10;76.50
75036;BME280;64247;51.540;5.854;2023-04-25T07:39:21;101041.06;;;9.22;75.25
75036;BME280;64247;51.540;5.854;2023-04-25T07:41:23;101044.59;;;9.44;76.87
75036;BME280;64247;51.540;5.854;2023-04-25T07:43:24;101052.50;;;9.79;76.72
75036;BME280;64247;51.540;5.854;2023-04-25T07:45:32;101052.69;;;9.95;73.49
75036;BME280;64247;51.540;5.854;2023-04-25T07:47:33;101059.19;;;9.81;74.60
75036;BME280;64247;51.540;5.854;2023-04-25T07:49:35;101057.81;;;9.75;70.42
75036;BME280;64247;51.540;5.854;2023-04-25T07:51:37;101059.84;;;9.57;71.07
75036;BME280;64247;51.540;5.854;2023-04-25T07:53:43;101059.22;;;9.52;71.79
75036;BME280;64247;51.540;5.854;2023-04-25T07:55:47;101056.84;;;9.71;69.70
75036;BME280;64247;51.540;5.854;2023-04-25T07:57:51;101058.38;;;9.81;72.53
75036;BME280;64247;51.540;5.854;2023-04-25T07:59:52;101054.63;;;9.94;73.44
75036;BME280;64247;51.540;5.854;2023-04-25T08:01:54;101074.47;;;10.07;72.40
75036;BME280;64247;51.540;5.854;2023-04-25T08:03:55;101072.66;;;10.33;70.48
75036;BME280;64247;51.540;5.854;2023-04-25T08:06:03;101076.03;;;10.51;71.73
75036;BME280;64247;51.540;5.854;2023-04-25T08:08:07;101079.53;;;10.51;71.11
75036;BME280;64247;51.540;5.854;2023-04-25T08:10:09;101083.19;;;10.55;68.98
75036;BME280;64247;51.540;5.854;2023-04-25T08:12:10;101077.56;;;10.39;67.17
75036;BME280;64247;51.540;5.854;2023-04-25T08:14:12;101085.25;;;10.16;67.83
75036;BME280;64247;51.540;5.854;2023-04-25T08:16:15;101083.91;;;10.01;66.17
75036;BME280;64247;51.540;5.854;2023-04-25T08:18:16;101092.59;;;9.94;70.66
75036;BME280;64247;51.540;5.854;2023-04-25T08:20:17;101092.88;;;10.02;68.02
75036;BME280;64247;51.540;5.854;2023-04-25T08:22:19;101099.59;;;10.17;67.88
75036;BME280;64247;51.540;5.854;2023-04-25T08:24:28;101103.44;;;10.37;69.14
75036;BME280;64247;51.540;5.854;2023-04-25T08:26:29;101096.81;;;10.47;67.45
75036;BME280;64247;51.540;5.854;2023-04-25T08:28:31;101097.50;;;10.43;67.95
75036;BME280;64247;51.540;5.854;2023-04-25T08:30:34;101105.97;;;10.42;69.26
75036;BME280;64247;51.540;5.854;2023-04-25T08:32:36;101113.66;;;10.40;67.95
75036;BME280;64247;51.540;5.854;2023-04-25T08:34:59;101113.56;;;10.27;70.71
75036;BME280;64247;51.540;5.854;2023-04-25T08:37:00;101109.06;;;10.10;68.16
75036;BME280;64247;51.540;5.854;2023-04-25T08:39:13;101112.38;;;9.95;67.38
75036;BME280;64247;51.540;5.854;2023-04-25T08:41:23;101117.72;;;9.82;69.55
75036;BME280;64247;51.540;5.854;2023-04-25T08:43:24;101115.31;;;9.81;70.78
75036;BME280;64247;51.540;5.854;2023-04-25T08:45:27;101118.34;;;9.88;70.38
75036;BME280;64247;51.540;5.854;2023-04-25T08:47:33;101122.84;;;10.05;69.49
75036;BME280;64247;51.540;5.854;2023-04-25T08:49:35;101125.41;;;10.23;67.14
75036;BME280;64247;51.540;5.854;2023-04-25T08:51:48;101118.78;;;10.33;65.19
75036;BME280;64247;51.540;5.854;2023-04-25T08:53:56;101128.97;;;10.36;64.44
75036;BME280;64247;51.540;5.854;2023-04-25T08:56:03;101134.25;;;10.41;64.40
75036;BME280;64247;51.540;5.854;2023-04-25T08:58:10;101132.75;;;10.65;61.86
75036;BME280;64247;51.540;5.854;2023-04-25T09:00:13;101127.63;;;10.97;59.59
75036;BME280;64247;51.540;5.854;2023-04-25T09:02:17;101139.34;;;11.22;55.45
75036;BME280;64247;51.540;5.854;2023-04-25T09:04:23;101136.88;;;11.29;56.58
75036;BME280;64247;51.540;5.854;2023-04-25T09:06:24;101137.63;;;11.30;59.37
75036;BME280;64247;51.540;5.854;2023-04-25T09:08:25;101123.13;;;11.01;58.00
75036;BME280;64247;51.540;5.854;2023-04-25T09:10:27;101145.84;;;10.84;60.42
75036;BME280;64247;51.540;5.854;2023-04-25T09:12:31;101149.91;;;10.90;60.02
75036;BME280;64247;51.540;5.854;2023-04-25T09:14:33;101154.47;;;10.98;58.15
75036;BME280;64247;51.540;5.854;2023-04-25T09:17:00;101164.00;;;11.17;57.21
75036;BME280;64247;51.540;5.854;2023-04-25T09:19:25;101165.47;;;11.27;55.72
75036;BME280;64247;51.540;5.854;2023-04-25T09:21:30;101170.38;;;11.33;57.92
75036;BME280;64247;51.540;5.854;2023-04-25T09:23:43;101159.38;;;11.30;57.52
75036;BME280;64247;51.540;5.854;2023-04-25T09:25:48;101164.69;;;11.14;58.30
75036;BME280;64247;51.540;5.854;2023-04-25T09:27:54;101171.78;;;10.93;59.52
75036;BME280;64247;51.540;5.854;2023-04-25T09:30:02;101175.91;;;10.79;58.42
75036;BME280;64247;51.540;5.854;2023-04-25T09:32:27;101180.69;;;10.60;57.13
75036;BME280;64247;51.540;5.854;2023-04-25T09:34:39;101163.88;;;10.46;58.35
75036;BME280;64247;51.540;5.854;2023-04-25T09:36:45;101185.59;;;10.46;57.65
75036;BME280;64247;51.540;5.854;2023-04-25T09:39:12;101177.09;;;10.69;58.13
75036;BME280;64247;51.540;5.854;2023-04-25T09:41:23;101182.16;;;10.91;59.38
75036;BME280;64247;51.540;5.854;2023-04-25T09:43:25;101189.16;;;11.26;59.72
75036;BME280;64247;51.540;5.854;2023-04-25T09:45:29;101181.38;;;11.62;60.56
75036;BME280;64247;51.540;5.854;2023-04-25T09:47:37;101184.56;;;11.76;58.38
75036;BME280;64247;51.540;5.854;2023-04-25T09:49:40;101183.31;;;11.86;57.74
75036;BME280;64247;51.540;5.854;2023-04-25T09:51:54;101183.88;;;11.92;58.81
75036;BME280;64247;51.540;5.854;2023-04-25T09:53:56;101184.34;;;11.69;59.13
75036;BME280;64247;51.540;5.854;2023-04-25T09:56:19;101191.88;;;11.14;59.55
75036;BME280;64247;51.540;5.854;2023-04-25T09:58:24;101204.78;;;10.62;58.94
75036;BME280;64247;51.540;5.854;2023-04-25T10:00:26;101212.25;;;10.23;62.25
75036;BME280;64247;51.540;5.854;2023-04-25T10:02:27;101214.66;;;9.86;64.31
75036;BME280;64247;51.540;5.854;2023-04-25T10:04:35;101219.66;;;9.36;66.99
75036;BME280;64247;51.540;5.854;2023-04-25T10:07:05;101235.66;;;8.76;73.05
75036;BME280;64247;51.540;5.854;2023-04-25T10:09:07;101264.03;;;8.21;73.75
75036;BME280;64247;51.540;5.854;2023-04-25T10:11:09;101275.91;;;7.71;76.68
75036;BME280;64247;51.540;5.854;2023-04-25T10:13:10;101279.50;;;7.26;79.66
75036;BME280;64247;51.540;5.854;2023-04-25T10:15:12;101271.59;;;6.93;79.94
75036;BME280;64247;51.540;5.854;2023-04-25T10:17:16;101247.69;;;6.77;79.45
75036;BME280;64247;51.540;5.854;2023-04-25T10:19:18;101237.00;;;6.72;74.28
75036;BME280;64247;51.540;5.854;2023-04-25T10:21:21;101248.09;;;6.71;77.90
75036;BME280;64247;51.540;5.854;2023-04-25T10:23:23;101253.38;;;6.76;74.06
75036;BME280;64247;51.540;5.854;2023-04-25T10:25:25;101249.06;;;6.89;75.38
75036;BME280;64247;51.540;5.854;2023-04-25T10:27:27;101249.16;;;7.06;78.16
75036;BME280;64247;51.540;5.854;2023-04-25T10:29:28;101242.25;;;7.45;78.11
75036;BME280;64247;51.540;5.854;2023-04-25T10:31:30;101237.47;;;7.74;78.41
75036;BME280;64247;51.540;5.854;2023-04-25T10:33:39;101236.13;;;8.03;79.16
75036;BME280;64247;51.540;5.854;2023-04-25T10:35:45;101229.69;;;8.30;74.99
75036;BME280;64247;51.540;5.854;2023-04-25T10:38:24;101225.88;;;8.40;76.61
75036;BME280;64247;51.540;5.854;2023-04-25T10:40:27;101224.03;;;8.58;73.30
75036;BME280;64247;51.540;5.854;2023-04-25T10:42:28;101225.44;;;8.82;75.91
75036;BME280;64247;51.540;5.854;2023-04-25T10:44:31;101230.84;;;8.99;73.15
75036;BME280;64247;51.540;5.854;2023-04-25T10:46:32;101231.63;;;9.17;72.84
75036;BME280;64247;51.540;5.854;2023-04-25T10:48:35;101231.56;;;9.44;72.95
75036;BME280;64247;51.540;5.854;2023-04-25T10:50:38;101237.41;;;9.63;69.80
75036;BME280;64247;51.540;5.854;2023-04-25T10:52:40;101232.25;;;9.79;70.98
75036;BME280;64247;51.540;5.854;2023-04-25T10:54:48;101230.56;;;9.96;67.44
75036;BME280;64247;51.540;5.854;2023-04-25T10:56:52;101228.69;;;10.18;64.82
75036;BME280;64247;51.540;5.854;2023-04-25T10:59:19;101223.00;;;10.40;68.92